sensor_id;sensor_type;location;lat;lon;timestamp;P1;durP1;ratioP1;P2;durP2;ratioP2
18596;SDS011;9428;50.950;6.912;2023-05-07T00:02:30;6.85;;;3.42;;
18596;SDS011;9428;50.950;6.912;2023-05-07T00:05:17;5.25;;;3.90;;
18596;SDS011;9428;50.950;6.912;2023-05-07T00:08:06;5.32;;;4.32;;
18596;SDS011;9428;50.950;6.912;2023-05-07T00:10:53;5.47;;;3.85;;
18596;SDS011;9428;50.950;6.912;2023-05-07T00:13:41;4.18;;;3.10;;
18596;SDS011;9428;50.950;6.912;2023-05-07T00:16:28;11.40;;;3.53;;
18596;SDS011;9428;50.950;6.912;2023-05-07T00:19:15;7.60;;;3.47;;
18596;SDS011;9428;50.950;6.912;2023-05-07T00:22:02;4.97;;;3.47;;
18596;SDS011;9428;50.950;6.912;2023-05-07T00:24:51;4.43;;;3.60;;
18596;SDS011;9428;50.950;6.912;2023-05-07T00:27:40;7.32;;;4.30;;
18596;SDS011;9428;50.950;6.912;2023-05-07T00:30:27;10.73;;;5.90;;
18596;SDS011;9428;50.950;6.912;2023-05-07T00:33:14;12.77;;;6.95;;
18596;SDS011;9428;50.950;6.912;2023-05-07T00:36:03;11.95;;;7.13;;
18596;SDS011;9428;50.950;6.912;2023-05-07T00:38:51;13.40;;;9.02;;
18596;SDS011;9428;50.950;6.912;2023-05-07T00:41:40;11.25;;;6.85;;
18596;SDS011;9428;50.950;6.912;2023-05-07T00:44:27;8.27;;;5.10;;
18596;SDS011;9428;50.950;6.912;2023-05-07T00:47:15;9.02;;;4.40;;
18596;SDS011;9428;50.950;6.912;2023-05-07T00:50:03;4.38;;;3.50;;
18596;SDS011;9428;50.950;6.912;2023-05-07T00:52:51;5.22;;;3.28;;
18596;SDS011;9428;50.950;6.912;2023-05-07T00:55:39;6.93;;;3.70;;
18596;SDS011;9428;50.950;6.912;2023-05-07T00:58:28;6.75;;;3.95;;
18596;SDS011;9428;50.950;6.912;2023-05-07T01:01:15;4.70;;;3.25;;
18596;SDS011;9428;50.950;6.912;2023-05-07T01:04:03;7.70;;;4.80;;
18596;SDS011;9428;50.950;6.912;2023-05-07T01:06:50;7.40;;;4.32;;
18596;SDS011;9428;50.950;6.912;2023-05-07T01:09:39;13.23;;;9.02;;
18596;SDS011;9428;50.950;6.912;2023-05-07T01:12:26;14.30;;;9.05;;
18596;SDS011;9428;50.950;6.912;2023-05-07T01:15:16;12.38;;;6.43;;
18596;SDS011;9428;50.950;6.912;2023-05-07T01:18:04;9.00;;;5.18;;
18596;SDS011;9428;50.950;6.912;2023-05-07T01:20:52;7.90;;;4.43;;
18596;SDS011;9428;50.950;6.912;2023-05-07T01:23:42;7.10;;;4.32;;
18596;SDS011;9428;50.950;6.912;2023-05-07T01:26:30;5.18;;;3.58;;
18596;SDS011;9428;50.950;6.912;2023-05-07T01:29:17;5.65;;;3.03;;
18596;SDS011;9428;50.950;6.912;2023-05-07T01:32:05;5.10;;;3.25;;
18596;SDS011;9428;50.950;6.912;2023-05-07T01:34:53;4.57;;;3.00;;
18596;SDS011;9428;50.950;6.912;2023-05-07T01:37:41;6.95;;;3.50;;
18596;SDS011;9428;50.950;6.912;2023-05-07T01:40:30;4.55;;;2.72;;
18596;SDS011;9428;50.950;6.912;2023-05-07T01:43:17;4.75;;;2.60;;
18596;SDS011;9428;50.950;6.912;2023-05-07T01:46:06;3.70;;;2.83;;
18596;SDS011;9428;50.950;6.912;2023-05-07T01:48:55;4.85;;;3.15;;
18596;SDS011;9428;50.950;6.912;2023-05-07T01:51:42;4.15;;;2.92;;
18596;SDS011;9428;50.950;6.912;2023-05-07T01:54:30;4.63;;;2.83;;
18596;SDS011;9428;50.950;6.912;2023-05-07T01:57:18;3.30;;;2.63;;
18596;SDS011;9428;50.950;6.912;2023-05-07T02:00:06;6.78;;;3.13;;
18596;SDS011;9428;50.950;6.912;2023-05-07T02:02:55;4.90;;;3.97;;
18596;SDS011;9428;50.950;6.912;2023-05-07T02:05:42;6.50;;;4.32;;
18596;SDS011;9428;50.950;6.912;2023-05-07T02:08:29;4.63;;;2.80;;
18596;SDS011;9428;50.950;6.912;2023-05-07T02:11:16;4.05;;;2.83;;
18596;SDS011;9428;50.950;6.912;2023-05-07T02:14:05;4.63;;;2.83;;
18596;SDS011;9428;50.950;6.912;2023-05-07T02:16:52;4.32;;;2.78;;
18596;SDS011;9428;50.950;6.912;2023-05-07T02:19:40;5.40;;;3.05;;
18596;SDS011;9428;50.950;6.912;2023-05-07T02:22:27;5.05;;;3.00;;
18596;SDS011;9428;50.950;6.912;2023-05-07T02:25:14;3.85;;;3.38;;
18596;SDS011;9428;50.950;6.912;2023-05-07T02:28:01;4.68;;;3.25;;
18596;SDS011;9428;50.950;6.912;2023-05-07T02:30:50;3.95;;;2.90;;
18596;SDS011;9428;50.950;6.912;2023-05-07T02:33:37;4.05;;;2.60;;
18596;SDS011;9428;50.950;6.912;2023-05-07T02:36:25;6.03;;;2.60;;
18596;SDS011;9428;50.950;6.912;2023-05-07T02:39:12;4.88;;;3.33;;
18596;SDS011;9428;50.950;6.912;2023-05-07T02:41:59;6.03;;;3.70;;
18596;SDS011;9428;50.950;6.912;2023-05-07T02:44:47;4.63;;;2.90;;
18596;SDS011;9428;50.950;6.912;2023-05-07T02:47:35;3.67;;;2.83;;
18596;SDS011;9428;50.950;6.912;2023-05-07T02:50:22;5.57;;;3.22;;
18596;SDS011;9428;50.950;6.912;2023-05-07T02:53:10;3.80;;;3.00;;
18596;SDS011;9428;50.950;6.912;2023-05-07T02:55:58;5.13;;;3.40;;
18596;SDS011;9428;50.950;6.912;2023-05-07T02:58:48;4.72;;;3.13;;
18596;SDS011;9428;50.950;6.912;2023-05-07T03:01:35;3.88;;;3.22;;
18596;SDS011;9428;50.950;6.912;2023-05-07T03:04:24;4.53;;;3.30;;
18596;SDS011;9428;50.950;6.912;2023-05-07T03:07:11;4.47;;;3.20;;
18596;SDS011;9428;50.950;6.912;2023-05-07T03:09:59;7.88;;;3.13;;
18596;SDS011;9428;50.950;6.912;2023-05-07T03:12:47;4.78;;;2.78;;
18596;SDS011;9428;50.950;6.912;2023-05-07T03:15:34;4.78;;;3.28;;
18596;SDS011;9428;50.950;6.912;2023-05-07T03:18:21;5.35;;;3.40;;
18596;SDS011;9428;50.950;6.912;2023-05-07T03:21:10;3.67;;;3.28;;
18596;SDS011;9428;50.950;6.912;2023-05-07T03:23:57;4.88;;;3.00;;
18596;SDS011;9428;50.950;6.912;2023-05-07T03:26:44;4.78;;;3.05;;
18596;SDS011;9428;50.950;6.912;2023-05-07T03:29:32;3.88;;;3.03;;
18596;SDS011;9428;50.950;6.912;2023-05-07T03:32:19;4.13;;;2.85;;
18596;SDS011;9428;50.950;6.912;2023-05-07T03:35:06;8.93;;;3.22;;
18596;SDS011;9428;50.950;6.912;2023-05-07T03:37:55;5.43;;;2.83;;
18596;SDS011;9428;50.950;6.912;2023-05-07T03:40:42;3.42;;;2.95;;
18596;SDS011;9428;50.950;6.912;2023-05-07T03:43:29;6.50;;;3.28;;
18596;SDS011;9428;50.950;6.912;2023-05-07T03:46:16;4.03;;;3.40;;
18596;SDS011;9428;50.950;6.912;2023-05-07T03:49:04;4.90;;;3.03;;
18596;SDS011;9428;50.950;6.912;2023-05-07T03:51:51;4.00;;;3.20;;
18596;SDS011;9428;50.950;6.912;2023-05-07T03:54:39;3.10;;;2.63;;
18596;SDS011;9428;50.950;6.912;2023-05-07T03:57:27;6.03;;;2.58;;
18596;SDS011;9428;50.950;6.912;2023-05-07T04:00:14;8.98;;;3.28;;
18596;SDS011;9428;50.950;6.912;2023-05-07T04:03:01;5.70;;;3.00;;
18596;SDS011;9428;50.950;6.912;2023-05-07T04:05:49;4.78;;;2.90;;
18596;SDS011;9428;50.950;6.912;2023-05-07T04:08:37;4.55;;;2.75;;
18596;SDS011;9428;50.950;6.912;2023-05-07T04:11:25;4.13;;;2.70;;
18596;SDS011;9428;50.950;6.912;2023-05-07T04:14:12;7.72;;;2.78;;
18596;SDS011;9428;50.950;6.912;2023-05-07T04:17:00;5.72;;;2.90;;
18596;SDS011;9428;50.950;6.912;2023-05-07T04:19:48;5.82;;;2.63;;
18596;SDS011;9428;50.950;6.912;2023-05-07T04:22:35;6.47;;;2.75;;
18596;SDS011;9428;50.950;6.912;2023-05-07T04:25:22;3.83;;;2.55;;
18596;SDS011;9428;50.950;6.912;2023-05-07T04:28:13;3.92;;;2.17;;
18596;SDS011;9428;50.950;6.912;2023-05-07T04:31:00;3.22;;;2.22;;
18596;SDS011;9428;50.950;6.912;2023-05-07T04:33:47;2.92;;;2.42;;
18596;SDS011;9428;50.950;6.912;2023-05-07T04:36:36;4.50;;;2.20;;
18596;SDS011;9428;50.950;6.912;2023-05-07T04:39:24;4.43;;;2.33;;
18596;SDS011;9428;50.950;6.912;2023-05-07T04:42:14;5.45;;;2.45;;
18596;SDS011;9428;50.950;6.912;2023-05-07T04:45:03;3.40;;;2.63;;
18596;SDS011;9428;50.950;6.912;2023-05-07T04:47:50;3.10;;;2.30;;
18596;SDS011;9428;50.950;6.912;2023-05-07T04:50:38;5.57;;;2.47;;
18596;SDS011;9428;50.950;6.912;2023-05-07T04:53:25;4.68;;;2.20;;
18596;SDS011;9428;50.950;6.912;2023-05-07T04:56:12;4.07;;;1.77;;
18596;SDS011;9428;50.950;6.912;2023-05-07T04:58:59;6.10;;;2.47;;
18596;SDS011;9428;50.950;6.912;2023-05-07T05:01:48;4.95;;;2.53;;
18596;SDS011;9428;50.950;6.912;2023-05-07T05:04:35;5.50;;;2.42;;
18596;SDS011;9428;50.950;6.912;2023-05-07T05:07:23;2.72;;;2.03;;
18596;SDS011;9428;50.950;6.912;2023-05-07T05:10:10;5.13;;;2.03;;
18596;SDS011;9428;50.950;6.912;2023-05-07T05:12:57;3.10;;;1.83;;
18596;SDS011;9428;50.950;6.912;2023-05-07T05:15:45;2.28;;;2.08;;
18596;SDS011;9428;50.950;6.912;2023-05-07T05:18:34;6.60;;;1.90;;
18596;SDS011;9428;50.950;6.912;2023-05-07T05:21:21;3.17;;;2.10;;
18596;SDS011;9428;50.950;6.912;2023-05-07T05:24:09;4.82;;;2.40;;
18596;SDS011;9428;50.950;6.912;2023-05-07T05:26:56;3.55;;;2.45;;
18596;SDS011;9428;50.950;6.912;2023-05-07T05:29:45;4.43;;;2.50;;
18596;SDS011;9428;50.950;6.912;2023-05-07T05:32:32;4.07;;;1.70;;
18596;SDS011;9428;50.950;6.912;2023-05-07T05:35:21;3.38;;;2.03;;
18596;SDS011;9428;50.950;6.912;2023-05-07T05:38:08;4.32;;;2.00;;
18596;SDS011;9428;50.950;6.912;2023-05-07T05:40:55;2.35;;;2.15;;
18596;SDS011;9428;50.950;6.912;2023-05-07T05:43:42;3.45;;;2.03;;
18596;SDS011;9428;50.950;6.912;2023-05-07T05:46:30;2.35;;;2.03;;
18596;SDS011;9428;50.950;6.912;2023-05-07T05:49:17;4.00;;;1.60;;
18596;SDS011;9428;50.950;6.912;2023-05-07T05:52:06;5.15;;;2.05;;
18596;SDS011;9428;50.950;6.912;2023-05-07T05:54:53;3.83;;;2.00;;
18596;SDS011;9428;50.950;6.912;2023-05-07T05:57:40;3.60;;;1.88;;
18596;SDS011;9428;50.950;6.912;2023-05-07T06:00:28;3.03;;;1.90;;
18596;SDS011;9428;50.950;6.912;2023-05-07T06:03:15;3.00;;;1.77;;
18596;SDS011;9428;50.950;6.912;2023-05-07T06:06:03;2.67;;;2.00;;
18596;SDS011;9428;50.950;6.912;2023-05-07T06:08:51;5.35;;;2.13;;
18596;SDS011;9428;50.950;6.912;2023-05-07T06:11:38;2.55;;;1.63;;
18596;SDS011;9428;50.950;6.912;2023-05-07T06:14:26;6.50;;;1.63;;
18596;SDS011;9428;50.950;6.912;2023-05-07T06:17:13;1.92;;;1.73;;
18596;SDS011;9428;50.950;6.912;2023-05-07T06:20:00;4.30;;;2.42;;
18596;SDS011;9428;50.950;6.912;2023-05-07T06:22:47;3.03;;;2.00;;
18596;SDS011;9428;50.950;6.912;2023-05-07T06:25:36;5.90;;;1.80;;
18596;SDS011;9428;50.950;6.912;2023-05-07T06:28:23;3.00;;;1.90;;
18596;SDS011;9428;50.950;6.912;2023-05-07T06:31:11;7.05;;;1.63;;
18596;SDS011;9428;50.950;6.912;2023-05-07T06:33:59;5.60;;;2.10;;
18596;SDS011;9428;50.950;6.912;2023-05-07T06:36:47;3.63;;;1.90;;
18596;SDS011;9428;50.950;6.912;2023-05-07T06:39:34;3.15;;;1.85;;
18596;SDS011;9428;50.950;6.912;2023-05-07T06:42:23;2.10;;;1.83;;
18596;SDS011;9428;50.950;6.912;2023-05-07T06:45:10;2.17;;;1.70;;
18596;SDS011;9428;50.950;6.912;2023-05-07T06:47:58;2.85;;;1.67;;
18596;SDS011;9428;50.950;6.912;2023-05-07T06:50:45;5.18;;;2.17;;
18596;SDS011;9428;50.950;6.912;2023-05-07T06:53:32;2.35;;;1.80;;
18596;SDS011;9428;50.950;6.912;2023-05-07T06:56:20;2.22;;;1.70;;
18596;SDS011;9428;50.950;6.912;2023-05-07T06:59:09;2.78;;;1.83;;
18596;SDS011;9428;50.950;6.912;2023-05-07T07:01:56;2.80;;;1.70;;
18596;SDS011;9428;50.950;6.912;2023-05-07T07:04:44;3.28;;;1.98;;
18596;SDS011;9428;50.950;6.912;2023-05-07T07:07:31;3.58;;;1.85;;
18596;SDS011;9428;50.950;6.912;2023-05-07T07:10:18;2.45;;;1.70;;
18596;SDS011;9428;50.950;6.912;2023-05-07T07:13:06;3.63;;;2.13;;
18596;SDS011;9428;50.950;6.912;2023-05-07T07:15:54;2.08;;;1.88;;
18596;SDS011;9428;50.950;6.912;2023-05-07T07:18:41;3.40;;;1.95;;
18596;SDS011;9428;50.950;6.912;2023-05-07T07:21:29;1.98;;;1.80;;
18596;SDS011;9428;50.950;6.912;2023-05-07T07:24:17;1.95;;;1.60;;
18596;SDS011;9428;50.950;6.912;2023-05-07T07:27:06;4.78;;;1.98;;
18596;SDS011;9428;50.950;6.912;2023-05-07T07:29:53;5.05;;;2.15;;
18596;SDS011;9428;50.950;6.912;2023-05-07T07:32:42;3.25;;;1.98;;
18596;SDS011;9428;50.950;6.912;2023-05-07T07:35:29;3.83;;;2.03;;
18596;SDS011;9428;50.950;6.912;2023-05-07T07:38:17;3.80;;;2.55;;
18596;SDS011;9428;50.950;6.912;2023-05-07T07:41:04;4.70;;;2.78;;
18596;SDS011;9428;50.950;6.912;2023-05-07T07:43:51;4.22;;;2.08;;
18596;SDS011;9428;50.950;6.912;2023-05-07T07:46:38;3.40;;;2.35;;
18596;SDS011;9428;50.950;6.912;2023-05-07T07:49:27;4.75;;;2.60;;
18596;SDS011;9428;50.950;6.912;2023-05-07T07:52:14;3.35;;;2.60;;
18596;SDS011;9428;50.950;6.912;2023-05-07T07:55:02;2.05;;;1.65;;
18596;SDS011;9428;50.950;6.912;2023-05-07T07:57:49;2.78;;;1.70;;
18596;SDS011;9428;50.950;6.912;2023-05-07T08:00:37;3.17;;;1.85;;
18596;SDS011;9428;50.950;6.912;2023-05-07T08:03:24;2.15;;;1.73;;
18596;SDS011;9428;50.950;6.912;2023-05-07T08:06:13;3.78;;;2.30;;
18596;SDS011;9428;50.950;6.912;2023-05-07T08:09:00;3.42;;;2.10;;
18596;SDS011;9428;50.950;6.912;2023-05-07T08:11:48;5.70;;;2.17;;
18596;SDS011;9428;50.950;6.912;2023-05-07T08:14:35;2.80;;;1.90;;
18596;SDS011;9428;50.950;6.912;2023-05-07T08:17:23;3.25;;;2.13;;
18596;SDS011;9428;50.950;6.912;2023-05-07T08:20:11;7.13;;;2.20;;
18596;SDS011;9428;50.950;6.912;2023-05-07T08:22:59;3.08;;;2.20;;
18596;SDS011;9428;50.950;6.912;2023-05-07T08:25:47;2.67;;;2.28;;
18596;SDS011;9428;50.950;6.912;2023-05-07T08:28:35;4.90;;;2.00;;
18596;SDS011;9428;50.950;6.912;2023-05-07T08:31:22;4.18;;;1.85;;
18596;SDS011;9428;50.950;6.912;2023-05-07T08:34:09;2.70;;;2.00;;
18596;SDS011;9428;50.950;6.912;2023-05-07T08:36:57;2.72;;;1.80;;
18596;SDS011;9428;50.950;6.912;2023-05-07T08:39:45;3.10;;;1.88;;
18596;SDS011;9428;50.950;6.912;2023-05-07T08:42:34;2.35;;;1.92;;
18596;SDS011;9428;50.950;6.912;2023-05-07T08:45:23;4.70;;;1.90;;
18596;SDS011;9428;50.950;6.912;2023-05-07T08:48:14;3.92;;;1.88;;
18596;SDS011;9428;50.950;6.912;2023-05-07T08:51:02;3.47;;;2.10;;
18596;SDS011;9428;50.950;6.912;2023-05-07T08:53:50;3.08;;;1.70;;
18596;SDS011;9428;50.950;6.912;2023-05-07T08:56:39;3.47;;;1.58;;
18596;SDS011;9428;50.950;6.912;2023-05-07T08:59:26;3.28;;;1.80;;
18596;SDS011;9428;50.950;6.912;2023-05-07T09:02:13;3.72;;;1.80;;
18596;SDS011;9428;50.950;6.912;2023-05-07T09:05:02;2.17;;;1.90;;
18596;SDS011;9428;50.950;6.912;2023-05-07T09:07:49;2.00;;;1.80;;
18596;SDS011;9428;50.950;6.912;2023-05-07T09:10:36;2.90;;;2.30;;
18596;SDS011;9428;50.950;6.912;2023-05-07T09:13:25;3.03;;;2.08;;
18596;SDS011;9428;50.950;6.912;2023-05-07T09:16:14;3.40;;;1.83;;
18596;SDS011;9428;50.950;6.912;2023-05-07T09:19:02;3.20;;;2.03;;
18596;SDS011;9428;50.950;6.912;2023-05-07T09:21:49;2.70;;;2.22;;
18596;SDS011;9428;50.950;6.912;2023-05-07T09:24:36;5.35;;;2.10;;
18596;SDS011;9428;50.950;6.912;2023-05-07T09:27:24;2.30;;;2.10;;
18596;SDS011;9428;50.950;6.912;2023-05-07T09:30:13;3.25;;;1.90;;
18596;SDS011;9428;50.950;6.912;2023-05-07T09:33:01;4.00;;;2.00;;
18596;SDS011;9428;50.950;6.912;2023-05-07T09:35:50;4.35;;;2.38;;
18596;SDS011;9428;50.950;6.912;2023-05-07T09:38:38;3.13;;;2.03;;
18596;SDS011;9428;50.950;6.912;2023-05-07T09:41:25;3.85;;;1.75;;
18596;SDS011;9428;50.950;6.912;2023-05-07T09:44:13;4.43;;;2.22;;
18596;SDS011;9428;50.950;6.912;2023-05-07T09:47:04;3.63;;;1.60;;
18596;SDS011;9428;50.950;6.912;2023-05-07T09:49:54;2.80;;;1.70;;
18596;SDS011;9428;50.950;6.912;2023-05-07T09:52:44;5.88;;;1.95;;
18596;SDS011;9428;50.950;6.912;2023-05-07T09:55:32;4.47;;;2.03;;
18596;SDS011;9428;50.950;6.912;2023-05-07T09:58:19;8.18;;;1.98;;
18596;SDS011;9428;50.950;6.912;2023-05-07T10:01:08;2.80;;;1.67;;
18596;SDS011;9428;50.950;6.912;2023-05-07T10:03:58;1.52;;;1.27;;
18596;SDS011;9428;50.950;6.912;2023-05-07T10:06:46;3.72;;;1.65;;
18596;SDS011;9428;50.950;6.912;2023-05-07T10:09:33;4.65;;;2.05;;
18596;SDS011;9428;50.950;6.912;2023-05-07T10:12:24;3.60;;;1.90;;
18596;SDS011;9428;50.950;6.912;2023-05-07T10:15:11;4.03;;;1.67;;
18596;SDS011;9428;50.950;6.912;2023-05-07T10:17:59;2.42;;;1.85;;
18596;SDS011;9428;50.950;6.912;2023-05-07T10:20:48;2.47;;;1.80;;
18596;SDS011;9428;50.950;6.912;2023-05-07T10:23:38;3.85;;;1.63;;
18596;SDS011;9428;50.950;6.912;2023-05-07T10:26:27;2.72;;;1.58;;
18596;SDS011;9428;50.950;6.912;2023-05-07T10:29:18;5.78;;;2.00;;
18596;SDS011;9428;50.950;6.912;2023-05-07T10:32:19;4.63;;;1.70;;
18596;SDS011;9428;50.950;6.912;2023-05-07T10:35:20;2.70;;;1.60;;
18596;SDS011;9428;50.950;6.912;2023-05-07T10:38:12;5.15;;;1.83;;
18596;SDS011;9428;50.950;6.912;2023-05-07T10:41:00;2.75;;;1.77;;
18596;SDS011;9428;50.950;6.912;2023-05-07T10:43:50;4.50;;;2.00;;
18596;SDS011;9428;50.950;6.912;2023-05-07T10:46:37;3.80;;;1.80;;
18596;SDS011;9428;50.950;6.912;2023-05-07T10:49:24;4.30;;;1.98;;
18596;SDS011;9428;50.950;6.912;2023-05-07T10:52:15;3.60;;;1.40;;
18596;SDS011;9428;50.950;6.912;2023-05-07T10:55:21;3.97;;;1.92;;
18596;SDS011;9428;50.950;6.912;2023-05-07T10:58:22;4.82;;;1.40;;
18596;SDS011;9428;50.950;6.912;2023-05-07T11:01:11;1.85;;;1.50;;
18596;SDS011;9428;50.950;6.912;2023-05-07T11:04:12;3.63;;;1.80;;
18596;SDS011;9428;50.950;6.912;2023-05-07T11:10:22;5.95;;;1.80;;
18596;SDS011;9428;50.950;6.912;2023-05-07T11:13:10;3.50;;;1.90;;
18596;SDS011;9428;50.950;6.912;2023-05-07T11:15:57;4.95;;;1.65;;
18596;SDS011;9428;50.950;6.912;2023-05-07T11:18:47;3.15;;;1.92;;
18596;SDS011;9428;50.950;6.912;2023-05-07T11:21:36;2.88;;;2.05;;
18596;SDS011;9428;50.950;6.912;2023-05-07T11:24:24;4.40;;;2.00;;
18596;SDS011;9428;50.950;6.912;2023-05-07T11:27:13;4.60;;;1.60;;
18596;SDS011;9428;50.950;6.912;2023-05-07T11:30:00;2.20;;;1.52;;
18596;SDS011;9428;50.950;6.912;2023-05-07T11:32:48;2.28;;;1.48;;
18596;SDS011;9428;50.950;6.912;2023-05-07T11:35:35;2.58;;;1.27;;
18596;SDS011;9428;50.950;6.912;2023-05-07T11:38:23;3.38;;;1.63;;
18596;SDS011;9428;50.950;6.912;2023-05-07T11:41:11;4.13;;;1.45;;
18596;SDS011;9428;50.950;6.912;2023-05-07T11:44:00;2.25;;;1.90;;
18596;SDS011;9428;50.950;6.912;2023-05-07T11:46:48;3.90;;;2.25;;
18596;SDS011;9428;50.950;6.912;2023-05-07T11:49:35;2.72;;;1.92;;
18596;SDS011;9428;50.950;6.912;2023-05-07T11:52:23;3.20;;;2.00;;
18596;SDS011;9428;50.950;6.912;2023-05-07T11:55:10;2.85;;;2.42;;
18596;SDS011;9428;50.950;6.912;2023-05-07T11:57:58;5.03;;;2.20;;
18596;SDS011;9428;50.950;6.912;2023-05-07T12:00:49;4.45;;;2.03;;
18596;SDS011;9428;50.950;6.912;2023-05-07T12:03:36;2.50;;;1.65;;
18596;SDS011;9428;50.950;6.912;2023-05-07T12:06:27;2.67;;;1.83;;
18596;SDS011;9428;50.950;6.912;2023-05-07T12:09:15;2.38;;;1.35;;
18596;SDS011;9428;50.950;6.912;2023-05-07T12:12:03;4.63;;;1.85;;
18596;SDS011;9428;50.950;6.912;2023-05-07T12:14:50;1.83;;;1.60;;
18596;SDS011;9428;50.950;6.912;2023-05-07T12:17:39;2.92;;;1.42;;
18596;SDS011;9428;50.950;6.912;2023-05-07T12:20:27;3.15;;;1.63;;
18596;SDS011;9428;50.950;6.912;2023-05-07T12:23:14;2.30;;;1.48;;
18596;SDS011;9428;50.950;6.912;2023-05-07T12:26:02;1.83;;;1.50;;
18596;SDS011;9428;50.950;6.912;2023-05-07T12:28:50;3.75;;;2.35;;
18596;SDS011;9428;50.950;6.912;2023-05-07T12:31:40;1.95;;;1.50;;
18596;SDS011;9428;50.950;6.912;2023-05-07T12:34:29;2.63;;;1.67;;
18596;SDS011;9428;50.950;6.912;2023-05-07T12:37:22;1.98;;;1.60;;
18596;SDS011;9428;50.950;6.912;2023-05-07T12:40:10;3.78;;;1.65;;
18596;SDS011;9428;50.950;6.912;2023-05-07T12:42:58;3.85;;;1.77;;
18596;SDS011;9428;50.950;6.912;2023-05-07T12:45:46;6.82;;;2.92;;
18596;SDS011;9428;50.950;6.912;2023-05-07T12:48:36;4.03;;;1.80;;
18596;SDS011;9428;50.950;6.912;2023-05-07T12:51:25;2.10;;;1.70;;
18596;SDS011;9428;50.950;6.912;2023-05-07T12:54:27;2.30;;;1.60;;
18596;SDS011;9428;50.950;6.912;2023-05-07T12:57:15;1.85;;;1.48;;
18596;SDS011;9428;50.950;6.912;2023-05-07T13:00:07;2.45;;;1.45;;
18596;SDS011;9428;50.950;6.912;2023-05-07T13:02:55;4.63;;;1.50;;
18596;SDS011;9428;50.950;6.912;2023-05-07T13:05:42;4.22;;;2.30;;
18596;SDS011;9428;50.950;6.912;2023-05-07T13:08:31;6.22;;;2.97;;
18596;SDS011;9428;50.950;6.912;2023-05-07T13:11:20;6.80;;;2.53;;
18596;SDS011;9428;50.950;6.912;2023-05-07T13:14:07;3.55;;;2.63;;
18596;SDS011;9428;50.950;6.912;2023-05-07T13:16:54;4.00;;;2.60;;
18596;SDS011;9428;50.950;6.912;2023-05-07T13:19:41;5.38;;;2.08;;
18596;SDS011;9428;50.950;6.912;2023-05-07T13:22:29;3.15;;;2.22;;
18596;SDS011;9428;50.950;6.912;2023-05-07T13:25:17;4.10;;;2.03;;
18596;SDS011;9428;50.950;6.912;2023-05-07T13:28:05;1.85;;;1.60;;
18596;SDS011;9428;50.950;6.912;2023-05-07T13:30:52;3.83;;;1.77;;
18596;SDS011;9428;50.950;6.912;2023-05-07T13:33:40;2.97;;;1.77;;
18596;SDS011;9428;50.950;6.912;2023-05-07T13:36:27;4.03;;;2.10;;
18596;SDS011;9428;50.950;6.912;2023-05-07T13:39:18;2.00;;;1.30;;
18596;SDS011;9428;50.950;6.912;2023-05-07T13:42:06;6.72;;;1.95;;
18596;SDS011;9428;50.950;6.912;2023-05-07T13:44:54;4.80;;;2.00;;
18596;SDS011;9428;50.950;6.912;2023-05-07T13:47:42;3.28;;;1.80;;
18596;SDS011;9428;50.950;6.912;2023-05-07T13:50:29;3.78;;;1.95;;
18596;SDS011;9428;50.950;6.912;2023-05-07T13:53:17;6.35;;;2.15;;
18596;SDS011;9428;50.950;6.912;2023-05-07T13:56:04;3.45;;;1.98;;
18596;SDS011;9428;50.950;6.912;2023-05-07T13:58:53;4.28;;;2.40;;
18596;SDS011;9428;50.950;6.912;2023-05-07T14:01:40;4.10;;;2.03;;
18596;SDS011;9428;50.950;6.912;2023-05-07T14:04:27;2.03;;;1.75;;
18596;SDS011;9428;50.950;6.912;2023-05-07T14:07:15;4.65;;;2.22;;
18596;SDS011;9428;50.950;6.912;2023-05-07T14:10:02;3.08;;;2.05;;
18596;SDS011;9428;50.950;6.912;2023-05-07T14:12:51;2.15;;;1.92;;
18596;SDS011;9428;50.950;6.912;2023-05-07T14:15:41;3.35;;;2.10;;
18596;SDS011;9428;50.950;6.912;2023-05-07T14:18:31;5.90;;;2.83;;
18596;SDS011;9428;50.950;6.912;2023-05-07T14:21:19;11.70;;;6.35;;
18596;SDS011;9428;50.950;6.912;2023-05-07T14:24:07;6.63;;;2.60;;
18596;SDS011;9428;50.950;6.912;2023-05-07T14:26:55;6.00;;;2.78;;
18596;SDS011;9428;50.950;6.912;2023-05-07T14:29:42;5.15;;;3.10;;
18596;SDS011;9428;50.950;6.912;2023-05-07T14:32:32;3.30;;;2.42;;
18596;SDS011;9428;50.950;6.912;2023-05-07T14:35:19;4.32;;;2.45;;
18596;SDS011;9428;50.950;6.912;2023-05-07T14:38:07;4.72;;;3.10;;
18596;SDS011;9428;50.950;6.912;2023-05-07T14:40:54;6.15;;;2.42;;
18596;SDS011;9428;50.950;6.912;2023-05-07T14:43:41;4.15;;;2.58;;
18596;SDS011;9428;50.950;6.912;2023-05-07T14:46:35;3.58;;;2.17;;
18596;SDS011;9428;50.950;6.912;2023-05-07T14:49:23;3.38;;;2.50;;
18596;SDS011;9428;50.950;6.912;2023-05-07T14:52:10;2.47;;;2.17;;
18596;SDS011;9428;50.950;6.912;2023-05-07T14:54:58;4.90;;;2.55;;
18596;SDS011;9428;50.950;6.912;2023-05-07T14:57:45;5.57;;;2.90;;
18596;SDS011;9428;50.950;6.912;2023-05-07T15:00:33;7.15;;;3.17;;
18596;SDS011;9428;50.950;6.912;2023-05-07T15:03:20;3.55;;;2.70;;
18596;SDS011;9428;50.950;6.912;2023-05-07T15:06:09;3.58;;;2.45;;
18596;SDS011;9428;50.950;6.912;2023-05-07T15:08:59;2.67;;;2.03;;
18596;SDS011;9428;50.950;6.912;2023-05-07T15:11:47;3.38;;;2.08;;
18596;SDS011;9428;50.950;6.912;2023-05-07T15:14:34;4.18;;;2.58;;
18596;SDS011;9428;50.950;6.912;2023-05-07T15:17:21;2.47;;;2.05;;
18596;SDS011;9428;50.950;6.912;2023-05-07T15:20:08;3.38;;;2.15;;
18596;SDS011;9428;50.950;6.912;2023-05-07T15:22:57;2.20;;;1.63;;
18596;SDS011;9428;50.950;6.912;2023-05-07T15:25:45;2.17;;;1.90;;
18596;SDS011;9428;50.950;6.912;2023-05-07T15:28:32;3.92;;;2.05;;
18596;SDS011;9428;50.950;6.912;2023-05-07T15:31:19;2.17;;;1.70;;
18596;SDS011;9428;50.950;6.912;2023-05-07T15:34:06;3.55;;;1.67;;
18596;SDS011;9428;50.950;6.912;2023-05-07T15:36:54;2.28;;;1.50;;
18596;SDS011;9428;50.950;6.912;2023-05-07T15:39:44;2.83;;;1.92;;
18596;SDS011;9428;50.950;6.912;2023-05-07T15:42:31;6.18;;;2.33;;
18596;SDS011;9428;50.950;6.912;2023-05-07T15:45:18;6.80;;;2.38;;
18596;SDS011;9428;50.950;6.912;2023-05-07T15:48:06;4.25;;;2.67;;
18596;SDS011;9428;50.950;6.912;2023-05-07T15:50:53;5.53;;;2.90;;
18596;SDS011;9428;50.950;6.912;2023-05-07T15:53:40;3.83;;;2.63;;
18596;SDS011;9428;50.950;6.912;2023-05-07T15:56:29;3.95;;;3.00;;
18596;SDS011;9428;50.950;6.912;2023-05-07T15:59:18;5.47;;;3.03;;
18596;SDS011;9428;50.950;6.912;2023-05-07T16:02:05;10.57;;;3.83;;
18596;SDS011;9428;50.950;6.912;2023-05-07T16:04:52;6.07;;;3.38;;
18596;SDS011;9428;50.950;6.912;2023-05-07T16:07:40;5.43;;;3.10;;
18596;SDS011;9428;50.950;6.912;2023-05-07T16:10:28;6.82;;;2.63;;
18596;SDS011;9428;50.950;6.912;2023-05-07T16:13:18;4.15;;;2.58;;
18596;SDS011;9428;50.950;6.912;2023-05-07T16:16:06;2.53;;;2.10;;
18596;SDS011;9428;50.950;6.912;2023-05-07T16:18:53;4.00;;;2.22;;
18596;SDS011;9428;50.950;6.912;2023-05-07T16:21:40;2.67;;;1.98;;
18596;SDS011;9428;50.950;6.912;2023-05-07T16:24:28;4.03;;;2.22;;
18596;SDS011;9428;50.950;6.912;2023-05-07T16:27:15;3.00;;;2.50;;
18596;SDS011;9428;50.950;6.912;2023-05-07T16:30:04;3.22;;;2.60;;
18596;SDS011;9428;50.950;6.912;2023-05-07T16:32:52;6.43;;;4.35;;
18596;SDS011;9428;50.950;6.912;2023-05-07T16:35:40;4.72;;;2.90;;
18596;SDS011;9428;50.950;6.912;2023-05-07T16:38:31;7.85;;;5.05;;
18596;SDS011;9428;50.950;6.912;2023-05-07T16:41:19;5.40;;;4.10;;
18596;SDS011;9428;50.950;6.912;2023-05-07T16:44:06;4.65;;;3.33;;
18596;SDS011;9428;50.950;6.912;2023-05-07T16:46:55;3.65;;;2.67;;
18596;SDS011;9428;50.950;6.912;2023-05-07T16:49:42;3.92;;;3.20;;
18596;SDS011;9428;50.950;6.912;2023-05-07T16:52:30;8.48;;;4.40;;
18596;SDS011;9428;50.950;6.912;2023-05-07T16:55:17;10.82;;;6.20;;
18596;SDS011;9428;50.950;6.912;2023-05-07T16:58:05;17.95;;;9.98;;
18596;SDS011;9428;50.950;6.912;2023-05-07T17:00:53;14.98;;;9.55;;
18596;SDS011;9428;50.950;6.912;2023-05-07T17:03:43;8.93;;;6.00;;
18596;SDS011;9428;50.950;6.912;2023-05-07T17:06:30;6.80;;;4.60;;
18596;SDS011;9428;50.950;6.912;2023-05-07T17:09:18;9.38;;;6.30;;
18596;SDS011;9428;50.950;6.912;2023-05-07T17:12:05;9.43;;;6.63;;